Time;durP1;ratioP1;P1;durP2;ratioP2;P2;SDS_P1;SDS_P2;PMS_P1;PMS_P2;Temp;Humidity;BMP_temperature;BMP_pressure;BME280_temperature;BME280_humidity;BME280_pressure;Samples;Min_cycle;Max_cycle;Signal;HPM_P1;HPM_P2
2022/07/21 00:01:49;;;;;;;1.80;1.70;;;19.50;70.50;;;;;;5100895;28;20039;-58
2022/07/21 00:04:17;;;;;;;1.92;1.77;;;19.50;70.50;;;;;;5108142;27;20051;-58
2022/07/21 00:06:44;;;;;;;2.30;1.52;;;19.50;70.50;;;;;;5098312;28;20038;-59
2022/07/21 00:09:11;;;;;;;3.55;1.98;;;19.50;70.60;;;;;;5114504;27;20079;-58
2022/07/21 00:11:37;;;;;;;1.60;1.50;;;19.40;71.20;;;;;;5106735;28;20032;-57
2022/07/21 00:14:07;;;;;;;1.35;1.25;;;19.50;70.70;;;;;;5098103;28;20043;-58
2022/07/21 00:16:33;;;;;;;1.40;1.30;;;19.40;70.70;;;;;;5109251;27;20112;-58
2022/07/21 00:18:59;;;;;;;1.98;1.73;;;19.40;70.80;;;;;;5110456;28;20106;-58
2022/07/21 00:21:26;;;;;;;2.10;1.85;;;19.50;70.90;;;;;;5112926;28;20031;-58
2022/07/21 00:23:52;;;;;;;1.33;1.23;;;19.40;70.70;;;;;;5113567;28;20584;-58
2022/07/21 00:26:18;;;;;;;1.75;1.65;;;19.40;70.60;;;;;;5110734;28;20016;-58
2022/07/21 00:28:44;;;;;;;1.98;1.70;;;19.40;70.60;;;;;;5112015;27;20016;-58
2022/07/21 00:31:09;;;;;;;1.83;1.50;;;19.40;70.60;;;;;;5110629;27;20039;-58
2022/07/21 00:33:35;;;;;;;2.00;1.80;;;19.40;70.60;;;;;;5105226;28;20391;-58
2022/07/21 00:36:01;;;;;;;1.80;1.70;;;19.30;70.50;;;;;;5108009;28;20024;-58
2022/07/21 00:38:26;;;;;;;2.00;1.80;;;19.30;70.30;;;;;;5099446;28;20099;-58
2022/07/21 00:40:53;;;;;;;3.15;2.17;;;19.30;70.50;;;;;;5107890;28;20054;-58
2022/07/21 00:43:19;;;;;;;2.17;1.92;;;19.30;70.60;;;;;;5108941;28;20305;-58
2022/07/21 00:45:45;;;;;;;1.75;1.63;;;19.20;70.70;;;;;;5084753;27;20032;-58
2022/07/21 00:48:10;;;;;;;2.53;2.10;;;19.20;70.80;;;;;;5101380;28;20024;-58
2022/07/21 00:50:36;;;;;;;1.70;1.60;;;19.20;70.90;;;;;;5104421;28;20377;-58
2022/07/21 00:53:02;;;;;;;3.45;1.95;;;19.10;70.80;;;;;;5113899;27;20020;-58
2022/07/21 00:55:28;;;;;;;2.38;2.10;;;19.10;70.80;;;;;;5110305;28;20102;-58
2022/07/21 00:57:54;;;;;;;2.92;2.00;;;19.10;70.90;;;;;;5105781;28;20031;-58
2022/07/21 01:00:26;;;;;;;2.00;1.90;;;19.00;70.80;;;;;;5101485;28;20674;-58
2022/07/21 01:02:52;;;;;;;1.92;1.83;;;19.00;70.90;;;;;;5112625;28;20124;-58
2022/07/21 01:05:19;;;;;;;1.75;1.65;;;19.00;71.00;;;;;;5108060;28;20031;-58
2022/07/21 01:07:51;;;;;;;2.97;1.92;;;18.90;71.00;;;;;;5098689;28;20387;-57
2022/07/21 01:10:19;;;;;;;2.13;1.92;;;18.90;71.10;;;;;;5111095;28;20120;-58
2022/07/21 01:12:45;;;;;;;2.63;1.90;;;18.80;71.10;;;;;;5108186;27;20503;-58
2022/07/21 01:15:12;;;;;;;2.20;2.00;;;18.80;71.30;;;;;;5105528;28;20024;-58
2022/07/21 01:17:39;;;;;;;2.15;1.95;;;18.70;71.40;;;;;;5112414;28;20084;-58
2022/07/21 01:20:08;;;;;;;2.20;2.00;;;18.70;71.50;;;;;;5111177;28;20027;-58
2022/07/21 01:22:36;;;;;;;2.35;2.10;;;18.60;71.60;;;;;;5104177;28;20080;-58
2022/07/21 01:25:03;;;;;;;2.28;1.70;;;18.60;71.70;;;;;;5106229;28;20028;-58
2022/07/21 01:27:29;;;;;;;2.60;2.20;;;18.60;71.70;;;;;;5098678;28;20050;-58
2022/07/21 01:29:55;;;;;;;2.60;2.40;;;18.60;71.80;;;;;;5101437;28;20027;-58
2022/07/21 01:32:22;;;;;;;2.65;2.30;;;18.60;71.80;;;;;;5101840;28;20028;-58
2022/07/21 01:34:47;;;;;;;2.20;2.00;;;18.50;71.80;;;;;;5106673;28;20024;-58
2022/07/21 01:37:14;;;;;;;2.00;1.90;;;18.50;71.80;;;;;;5100852;28;20517;-58
2022/07/21 01:42:37;;;;;;;2.00;1.90;;;18.50;71.80;;;;;;5071547;28;20074;-58
2022/07/21 01:45:04;;;;;;;2.25;2.05;;;18.50;71.80;;;;;;5100539;28;20044;-58
2022/07/21 01:47:30;;;;;;;2.08;1.90;;;18.50;71.70;;;;;;5101810;28;20031;-58
2022/07/21 01:49:56;;;;;;;2.10;1.70;;;18.40;71.70;;;;;;5104702;28;20530;-58
2022/07/21 01:52:22;;;;;;;1.60;1.50;;;18.40;71.70;;;;;;5105097;28;20016;-58
2022/07/21 01:54:48;;;;;;;2.22;2.03;;;18.40;71.70;;;;;;5113278;27;20080;-58
2022/07/21 01:57:13;;;;;;;2.20;2.00;;;18.40;71.70;;;;;;5110329;28;20041;-58
2022/07/21 01:59:39;;;;;;;2.13;1.90;;;18.40;71.60;;;;;;5105578;27;20044;-57
2022/07/21 02:02:05;;;;;;;2.40;2.20;;;18.40;71.90;;;;;;5105818;28;20023;-58
2022/07/21 02:04:30;;;;;;;1.83;1.73;;;18.40;71.90;;;;;;5102761;28;20081;-58
2022/07/21 02:06:56;;;;;;;1.73;1.63;;;18.40;72.00;;;;;;5096444;28;20028;-58
2022/07/21 02:09:22;;;;;;;1.65;1.55;;;18.40;71.90;;;;;;5110779;27;20559;-58
2022/07/21 02:11:47;;;;;;;6.70;1.80;;;18.30;71.90;;;;;;5096445;28;20099;-58
2022/07/21 02:14:13;;;;;;;1.80;1.70;;;18.40;72.00;;;;;;5092582;27;20066;-58
2022/07/21 02:16:39;;;;;;;2.05;1.92;;;18.30;72.00;;;;;;5094619;28;20027;-58
2022/07/21 02:19:04;;;;;;;3.53;2.00;;;18.30;72.10;;;;;;5095704;28;20435;-58
2022/07/21 02:21:30;;;;;;;2.47;1.98;;;18.40;72.00;;;;;;5101822;28;20068;-57
2022/07/21 02:23:56;;;;;;;1.88;1.73;;;18.30;72.00;;;;;;5103482;28;20028;-58
2022/07/21 02:26:22;;;;;;;1.83;1.73;;;18.30;72.00;;;;;;5103127;28;20027;-58
2022/07/21 02:28:47;;;;;;;2.40;1.98;;;18.30;71.90;;;;;;5107925;28;20055;-58
2022/07/21 02:31:13;;;;;;;1.88;1.77;;;18.30;71.80;;;;;;5109363;28;20028;-58
2022/07/21 02:33:39;;;;;;;4.03;1.90;;;18.30;71.80;;;;;;5102194;28;20023;-58
2022/07/21 02:36:05;;;;;;;3.50;1.90;;;18.30;72.50;;;;;;5103780;28;20027;-57
2022/07/21 02:38:31;;;;;;;1.92;1.73;;;18.30;72.00;;;;;;5101420;28;20019;-58
2022/07/21 02:40:57;;;;;;;2.00;1.90;;;18.30;72.50;;;;;;5082599;28;20075;-58
2022/07/21 02:43:22;;;;;;;2.35;2.10;;;18.30;71.80;;;;;;5084517;28;20024;-58
2022/07/21 02:45:48;;;;;;;3.63;2.10;;;18.30;71.80;;;;;;5094489;28;20027;-58
2022/07/21 02:48:14;;;;;;;1.98;1.75;;;18.30;71.90;;;;;;5107763;28;20024;-58
2022/07/21 02:50:41;;;;;;;2.50;1.88;;;18.30;71.90;;;;;;5107138;28;20040;-58
2022/07/21 02:53:10;;;;;;;1.88;1.67;;;18.30;71.90;;;;;;5098742;28;20012;-58
2022/07/21 02:55:36;;;;;;;2.03;1.75;;;18.30;71.90;;;;;;5111723;28;20023;-58
2022/07/21 02:58:24;;;;;;;2.00;1.83;;;18.40;72.00;;;;;;5106677;28;20043;-58
2022/07/21 03:00:59;;;;;;;2.15;1.95;;;18.40;71.80;;;;;;5108256;28;20015;-58
2022/07/21 03:03:27;;;;;;;1.80;1.70;;;18.40;71.70;;;;;;5097410;28;20032;-58
2022/07/21 03:05:53;;;;;;;2.00;1.90;;;18.40;71.60;;;;;;5101553;28;20098;-58
2022/07/21 03:08:21;;;;;;;3.08;1.88;;;18.40;71.60;;;;;;5103485;28;20148;-58
2022/07/21 03:10:47;;;;;;;1.90;1.80;;;18.40;71.70;;;;;;5108198;28;20471;-58
2022/07/21 03:13:13;;;;;;;1.88;1.77;;;18.50;71.50;;;;;;5109962;28;20012;-58
2022/07/21 03:15:39;;;;;;;1.85;1.73;;;18.50;71.40;;;;;;5111533;28;20379;-58
2022/07/21 03:18:05;;;;;;;1.70;1.60;;;18.50;71.30;;;;;;5109763;28;20646;-58
2022/07/21 03:20:33;;;;;;;1.85;1.75;;;18.60;71.30;;;;;;5099084;28;20035;-58
2022/07/21 03:23:00;;;;;;;2.05;1.85;;;18.60;71.40;;;;;;5103258;28;20027;-58
2022/07/21 03:25:26;;;;;;;2.10;1.88;;;18.70;71.50;;;;;;5104111;28;20103;-58
2022/07/21 03:27:52;;;;;;;1.67;1.58;;;18.80;71.50;;;;;;5108156;28;21362;-58
2022/07/21 03:30:19;;;;;;;2.60;1.92;;;18.90;71.50;;;;;;5100592;28;20434;-58
2022/07/21 03:32:45;;;;;;;1.90;1.80;;;19.00;71.70;;;;;;5107866;28;20068;-58
2022/07/21 03:35:12;;;;;;;1.83;1.73;;;19.10;72.10;;;;;;5111805;28;20475;-58
2022/07/21 03:38:01;;;;;;;2.17;1.98;;;19.30;72.20;;;;;;5104232;28;20016;-58
2022/07/21 03:40:29;;;;;;;2.10;1.90;;;19.50;71.10;;;;;;5098688;28;20035;-59
2022/07/21 03:42:57;;;;;;;1.67;1.58;;;19.70;72.10;;;;;;5103191;28;20367;-58
2022/07/21 03:45:24;;;;;;;1.88;1.77;;;20.00;72.20;;;;;;5112658;28;20031;-58
2022/07/21 03:47:50;;;;;;;1.92;1.60;;;20.30;72.20;;;;;;5102164;28;20430;-58
2022/07/21 03:50:18;;;;;;;1.70;1.60;;;20.70;72.00;;;;;;5105987;28;20046;-58
2022/07/21 03:52:47;;;;;;;1.80;1.70;;;21.10;71.00;;;;;;5116102;27;20020;-58
2022/07/21 03:55:18;;;;;;;1.75;1.63;;;21.60;70.20;;;;;;5114796;27;20023;-58
2022/07/21 03:57:59;;;;;;;1.58;1.40;;;22.20;69.70;;;;;;5103433;28;20036;-59
2022/07/21 04:00:34;;;;;;;2.35;1.52;;;23.00;67.60;;;;;;5102130;28;20035;-59
2022/07/21 04:03:00;;;;;;;1.58;1.27;;;23.90;66.00;;;;;;5111037;28;20130;-59
2022/07/21 04:05:27;;;;;;;1.55;1.45;;;24.70;64.30;;;;;;5111792;27;20027;-59
2022/07/21 04:07:54;;;;;;;1.70;1.52;;;25.50;62.60;;;;;;5114842;27;20020;-59
2022/07/21 04:10:24;;;;;;;1.35;1.25;;;26.30;61.00;;;;;;5113603;27;20368;-59
2022/07/21 04:12:50;;;;;;;1.70;1.27;;;27.00;59.60;;;;;;5103232;27;20038;-59
2022/07/21 04:15:16;;;;;;;1.85;1.05;;;27.70;58.50;;;;;;5103273;28;20472;-59
2022/07/21 04:17:42;;;;;;;1.40;1.23;;;28.20;57.40;;;;;;5111456;27;20016;-57
2022/07/21 04:20:09;;;;;;;1.48;1.10;;;28.80;56.50;;;;;;5105906;28;20027;-58
2022/07/21 04:22:35;;;;;;;1.10;1.00;;;29.40;55.30;;;;;;5113327;28;20024;-58
2022/07/21 04:25:02;;;;;;;1.35;1.25;;;29.90;54.50;;;;;;5105586;27;20028;-60
2022/07/21 04:27:28;;;;;;;1.40;1.20;;;30.50;53.90;;;;;;5103933;28;20039;-58
2022/07/21 04:29:54;;;;;;;1.30;1.20;;;31.00;53.00;;;;;;5099494;28;20024;-58
2022/07/21 04:32:19;;;;;;;1.77;1.40;;;31.40;52.40;;;;;;5098910;28;20107;-58
2022/07/21 04:34:45;;;;;;;1.30;1.20;;;31.80;51.70;;;;;;5108911;28;20032;-58
2022/07/21 04:37:11;;;;;;;1.27;1.05;;;32.10;51.20;;;;;;5100044;28;20471;-58
2022/07/21 04:39:36;;;;;;;2.20;1.13;;;32.50;50.60;;;;;;5087025;28;20031;-58
2022/07/21 04:42:03;;;;;;;1.35;1.25;;;32.80;49.80;;;;;;5102846;27;20036;-58
2022/07/21 04:44:29;;;;;;;4.47;1.25;;;33.10;49.40;;;;;;5105115;28;20031;-58
2022/07/21 04:46:56;;;;;;;1.38;1.10;;;33.40;48.90;;;;;;5104463;28;20028;-58
2022/07/21 04:49:22;;;;;;;1.20;1.13;;;33.60;48.30;;;;;;5105027;27;20091;-57
2022/07/21 04:51:48;;;;;;;1.08;1.08;;;33.70;47.90;;;;;;5107274;28;20138;-58
2022/07/21 04:54:14;;;;;;;2.47;1.35;;;33.90;47.70;;;;;;5109042;27;20020;-58
2022/07/21 04:56:43;;;;;;;1.95;1.40;;;34.10;47.30;;;;;;5106499;27;20088;-58
2022/07/21 04:59:09;;;;;;;1.63;1.30;;;34.20;46.80;;;;;;5108359;27;20057;-58
2022/07/21 05:01:36;;;;;;;1.02;1.02;;;34.40;46.60;;;;;;5098293;27;20035;-58
2022/07/21 05:04:02;;;;;;;1.73;1.50;;;34.50;46.40;;;;;;5105635;28;20617;-57
2022/07/21 05:06:27;;;;;;;1.48;1.35;;;34.50;45.90;;;;;;5097036;27;20035;-58
2022/07/21 05:08:53;;;;;;;2.13;1.40;;;34.60;45.80;;;;;;5101995;27;20067;-57
2022/07/21 05:11:18;;;;;;;1.73;1.25;;;34.70;45.90;;;;;;5103242;27;20069;-58
2022/07/21 05:13:44;;;;;;;1.17;1.10;;;34.80;45.70;;;;;;5108076;27;20024;-58
2022/07/21 05:16:10;;;;;;;1.77;1.30;;;34.90;45.40;;;;;;5096472;27;20024;-58
2022/07/21 05:18:36;;;;;;;1.17;1.08;;;34.90;45.10;;;;;;5100715;28;20054;-58
2022/07/21 05:21:01;;;;;;;1.17;0.90;;;34.90;44.80;;;;;;5100037;28;20027;-58
2022/07/21 05:23:27;;;;;;;1.48;1.15;;;34.90;44.70;;;;;;5100368;27;21185;-58
2022/07/21 05:25:53;;;;;;;1.38;1.20;;;35.00;44.60;;;;;;5106182;27;20019;-58
2022/07/21 05:28:18;;;;;;;0.93;0.93;;;34.90;44.00;;;;;;5103465;27;20510;-58
2022/07/21 05:30:44;;;;;;;1.80;1.27;;;34.80;43.50;;;;;;5099918;28;20080;-58
2022/07/21 05:33:10;;;;;;;1.55;1.45;;;34.50;43.40;;;;;;5098130;27;20024;-58
2022/07/21 05:35:35;;;;;;;1.20;1.10;;;34.00;43.70;;;;;;5098690;27;20020;-57
2022/07/21 05:38:02;;;;;;;2.22;1.48;;;33.20;44.20;;;;;;5103661;27;20915;-58
2022/07/21 05:40:27;;;;;;;1.67;1.40;;;32.30;44.70;;;;;;5094159;27;20027;-58
2022/07/21 05:42:53;;;;;;;1.52;1.42;;;31.40;45.40;;;;;;5099240;27;20043;-57
2022/07/21 05:45:19;;;;;;;1.35;1.25;;;30.50;46.40;;;;;;5103169;27;20689;-58
2022/07/21 05:47:45;;;;;;;2.42;1.35;;;29.60;47.30;;;;;;5096153;27;20020;-58
2022/07/21 05:50:11;;;;;;;1.40;1.30;;;28.90;48.10;;;;;;5099961;27;20036;-57
2022/07/21 05:52:37;;;;;;;1.42;1.10;;;28.20;48.70;;;;;;5094504;28;20031;-58
2022/07/21 05:55:03;;;;;;;1.52;1.35;;;27.70;49.50;;;;;;5093732;28;20487;-58
2022/07/21 05:57:29;;;;;;;1.38;1.27;;;27.20;50.20;;;;;;5091707;28;20046;-57
2022/07/21 05:59:55;;;;;;;1.38;1.30;;;26.80;50.90;;;;;;5089053;27;20751;-58
2022/07/21 06:02:21;;;;;;;1.30;1.20;;;26.50;51.30;;;;;;5091174;27;20031;-58
2022/07/21 06:04:46;;;;;;;1.88;1.00;;;26.30;52.00;;;;;;5088903;28;20023;-58
2022/07/21 06:07:12;;;;;;;1.42;1.33;;;26.00;52.30;;;;;;5088207;27;20115;-58
2022/07/21 06:09:38;;;;;;;1.83;1.30;;;25.80;52.80;;;;;;5089113;27;20028;-57
2022/07/21 06:12:04;;;;;;;1.98;1.30;;;25.70;53.00;;;;;;5089966;27;20429;-58
2022/07/21 06:14:29;;;;;;;2.88;1.50;;;25.50;53.30;;;;;;5094198;27;20532;-57
2022/07/21 06:16:55;;;;;;;1.20;1.20;;;25.40;53.40;;;;;;5097375;27;20063;-58
2022/07/21 06:19:21;;;;;;;1.00;1.00;;;25.30;53.80;;;;;;5095053;28;20024;-58
2022/07/21 06:21:47;;;;;;;1.00;1.00;;;25.20;54.10;;;;;;5093856;27;20047;-59
2022/07/21 06:24:13;;;;;;;1.10;0.90;;;25.00;54.40;;;;;;5096324;27;20148;-58
2022/07/21 06:26:39;;;;;;;1.05;1.00;;;25.00;54.70;;;;;;5087699;28;20031;-57
2022/07/21 06:29:06;;;;;;;1.10;1.00;;;24.90;54.70;;;;;;5091640;27;20028;-58
2022/07/21 06:31:32;;;;;;;1.05;1.05;;;24.80;54.90;;;;;;5093324;27;20491;-58
2022/07/21 06:33:58;;;;;;;1.02;0.93;;;24.80;55.10;;;;;;5096184;28;20038;-58
2022/07/21 06:36:24;;;;;;;1.65;1.25;;;24.80;55.40;;;;;;5092673;28;20494;-58
2022/07/21 06:38:49;;;;;;;1.00;1.00;;;24.70;55.10;;;;;;5086897;28;20112;-58
2022/07/21 06:41:15;;;;;;;1.52;1.20;;;24.70;55.50;;;;;;5094265;28;20035;-58
2022/07/21 06:43:40;;;;;;;1.27;1.20;;;24.60;55.40;;;;;;5087949;28;20042;-58
2022/07/21 06:46:06;;;;;;;1.25;1.15;;;24.60;55.30;;;;;;5092968;27;20027;-58
2022/07/21 06:48:32;;;;;;;1.33;1.27;;;24.50;55.20;;;;;;5089600;28;20084;-58
2022/07/21 06:50:58;;;;;;;1.42;1.33;;;24.40;55.50;;;;;;5084914;28;20049;-58
2022/07/21 06:53:24;;;;;;;0.90;0.90;;;24.40;55.50;;;;;;5088761;28;21008;-58
2022/07/21 06:55:53;;;;;;;1.35;1.25;;;24.30;55.60;;;;;;5088708;28;20112;-57
2022/07/21 06:58:22;;;;;;;0.65;0.65;;;24.20;55.70;;;;;;5096085;28;20047;-58
2022/07/21 07:00:49;;;;;;;1.30;1.20;;;24.20;56.00;;;;;;5082703;28;20088;-58
2022/07/21 07:03:15;;;;;;;1.33;1.20;;;24.10;55.90;;;;;;5083635;28;20445;-57
2022/07/21 07:05:43;;;;;;;1.95;1.40;;;24.10;56.00;;;;;;5084566;27;20032;-58
2022/07/21 07:08:10;;;;;;;2.75;1.50;;;24.10;56.20;;;;;;5078733;27;20023;-58
2022/07/21 07:10:35;;;;;;;1.75;1.02;;;24.00;56.00;;;;;;5077323;27;20043;-57
2022/07/21 07:13:01;;;;;;;0.80;0.80;;;24.00;56.10;;;;;;5087360;27;20400;-57
2022/07/21 07:15:28;;;;;;;0.95;0.95;;;23.90;56.20;;;;;;5084900;27;20032;-57
2022/07/21 07:17:54;;;;;;;1.02;1.02;;;23.90;56.40;;;;;;5080879;27;20032;-57
2022/07/21 07:20:20;;;;;;;1.38;1.27;;;23.90;56.50;;;;;;5081087;27;21828;-56
2022/07/21 07:22:46;;;;;;;1.27;1.23;;;23.90;56.50;;;;;;5086543;27;20085;-57
2022/07/21 07:25:16;;;;;;;0.77;0.77;;;23.90;56.30;;;;;;5088764;27;20027;-57
2022/07/21 07:27:43;;;;;;;1.97;1.17;;;23.90;56.10;;;;;;5090693;27;20032;-57
2022/07/21 07:30:09;;;;;;;1.95;1.20;;;23.90;56.10;;;;;;5083342;27;20299;-56
2022/07/21 07:32:35;;;;;;;1.33;1.27;;;23.90;55.90;;;;;;5083075;27;20036;-56
2022/07/21 07:35:00;;;;;;;1.00;0.95;;;23.80;56.00;;;;;;5085354;27;20034;-57
2022/07/21 07:37:26;;;;;;;1.17;0.98;;;23.80;55.70;;;;;;5085521;27;20391;-57
2022/07/21 07:39:52;;;;;;;1.00;0.98;;;23.80;55.80;;;;;;5086683;27;20499;-57
2022/07/21 07:42:18;;;;;;;0.80;0.80;;;23.80;55.80;;;;;;5083908;27;20081;-57
2022/07/21 07:44:45;;;;;;;0.98;0.98;;;23.80;55.70;;;;;;5079796;27;20020;-57
2022/07/21 07:47:11;;;;;;;0.88;0.88;;;23.80;55.60;;;;;;5081581;27;20460;-57
2022/07/21 07:49:36;;;;;;;0.90;0.90;;;23.80;55.70;;;;;;5078429;28;20042;-57
2022/07/21 07:52:02;;;;;;;0.90;0.90;;;23.70;55.80;;;;;;5079394;27;20036;-56
2022/07/21 07:54:28;;;;;;;1.58;0.80;;;23.70;56.00;;;;;;5078788;27;20464;-58
2022/07/21 07:56:54;;;;;;;0.93;0.93;;;23.70;56.10;;;;;;5078784;27;20039;-57
2022/07/21 07:59:19;;;;;;;1.02;1.02;;;23.70;56.10;;;;;;5078575;27;20051;-58
2022/07/21 08:01:45;;;;;;;1.45;1.15;;;23.70;56.00;;;;;;5070866;27;20045;-57
2022/07/21 08:04:11;;;;;;;0.90;0.88;;;23.70;56.20;;;;;;5075950;27;20492;-57
2022/07/21 08:06:36;;;;;;;0.93;0.93;;;23.80;56.00;;;;;;5078377;27;20067;-57
2022/07/21 08:09:02;;;;;;;0.90;0.90;;;23.80;56.30;;;;;;5070017;27;20134;-57
2022/07/21 08:11:28;;;;;;;0.73;0.60;;;23.80;56.00;;;;;;5080740;27;20051;-57
2022/07/21 08:13:53;;;;;;;1.73;1.23;;;23.70;55.70;;;;;;5085353;27;20035;-57
2022/07/21 08:16:21;;;;;;;0.80;0.80;;;23.70;55.50;;;;;;5086090;27;20713;-56
2022/07/21 08:18:46;;;;;;;1.92;1.02;;;23.70;55.80;;;;;;5077063;27;20031;-57
2022/07/21 08:21:12;;;;;;;1.00;1.00;;;23.60;55.80;;;;;;5078851;27;20392;-56
2022/07/21 08:23:38;;;;;;;1.23;1.13;;;23.60;56.00;;;;;;5077844;27;20028;-56
2022/07/21 08:26:05;;;;;;;1.10;1.00;;;23.60;56.10;;;;;;5080915;27;20031;-57
2022/07/21 08:28:31;;;;;;;0.90;0.90;;;23.60;56.30;;;;;;5080663;27;20593;-56
2022/07/21 08:30:56;;;;;;;0.63;0.63;;;23.60;56.60;;;;;;5078324;27;20024;-57
2022/07/21 08:33:22;;;;;;;0.70;0.70;;;23.60;56.50;;;;;;5082283;27;20501;-56
2022/07/21 08:35:48;;;;;;;0.65;0.65;;;23.60;56.40;;;;;;5067698;28;20098;-57
2022/07/21 08:38:14;;;;;;;1.33;1.23;;;23.60;56.50;;;;;;5084690;27;20048;-57
2022/07/21 08:40:42;;;;;;;1.20;1.10;;;23.60;56.80;;;;;;5065545;28;20106;-57
2022/07/21 08:43:09;;;;;;;1.27;0.88;;;23.60;56.60;;;;;;5075743;27;20031;-57
2022/07/21 08:45:36;;;;;;;1.40;1.15;;;23.60;56.30;;;;;;5078158;27;20100;-58
2022/07/21 08:48:03;;;;;;;1.30;1.20;;;23.60;56.20;;;;;;5079977;27;20114;-57
2022/07/21 08:50:35;;;;;;;0.80;0.80;;;23.50;56.20;;;;;;5076596;27;20048;-57
2022/07/21 08:53:01;;;;;;;1.10;1.10;;;23.50;56.30;;;;;;5083113;27;20115;-58
2022/07/21 08:55:41;;;;;;;1.45;1.00;;;23.50;56.40;;;;;;5085865;27;20110;-57
2022/07/21 08:58:11;;;;;;;1.00;1.00;;;23.50;56.50;;;;;;5079566;27;20039;-58
2022/07/21 09:00:39;;;;;;;1.00;0.95;;;23.40;56.50;;;;;;5073062;27;20268;-57
2022/07/21 09:03:11;;;;;;;2.33;0.90;;;23.40;56.60;;;;;;5080334;27;20035;-56
2022/07/21 09:05:37;;;;;;;1.13;0.85;;;23.40;56.40;;;;;;5078116;27;20024;-56
2022/07/21 09:08:03;;;;;;;1.00;1.00;;;23.30;56.30;;;;;;5074945;27;20107;-58
2022/07/21 09:10:31;;;;;;;0.80;0.80;;;23.30;56.50;;;;;;5069783;27;20074;-58
2022/07/21 09:13:00;;;;;;;1.35;1.25;;;23.30;56.60;;;;;;5075892;27;20085;-59
2022/07/21 09:15:28;;;;;;;1.05;1.00;;;23.30;56.70;;;;;;5081187;27;20111;-59
2022/07/21 09:18:06;;;;;;;0.80;0.80;;;23.30;56.70;;;;;;5082798;27;20782;-58
2022/07/21 09:20:32;;;;;;;1.00;1.00;;;23.30;56.80;;;;;;5078262;27;20734;-58
2022/07/21 09:23:13;;;;;;;0.88;0.88;;;23.30;56.80;;;;;;5084144;27;20085;-59
2022/07/21 09:25:50;;;;;;;0.80;0.80;;;23.20;56.80;;;;;;5083374;27;20063;-59
2022/07/21 09:28:22;;;;;;;1.27;1.02;;;23.30;56.90;;;;;;5076244;27;20118;-59
2022/07/21 09:30:59;;;;;;;1.30;1.20;;;23.20;56.90;;;;;;5074008;27;20020;-58
2022/07/21 09:33:27;;;;;;;1.50;1.40;;;23.20;56.90;;;;;;5079468;27;20032;-58
2022/07/21 09:36:15;;;;;;;1.35;1.25;;;23.20;56.80;;;;;;5080673;27;20028;-58
2022/07/21 09:38:50;;;;;;;1.70;1.20;;;23.20;56.90;;;;;;5059625;27;20036;-58
2022/07/21 09:41:28;;;;;;;1.23;1.15;;;23.20;57.10;;;;;;5078311;27;20032;-59
2022/07/21 09:43:56;;;;;;;1.00;1.00;;;23.20;57.50;;;;;;5072824;27;21094;-60
2022/07/21 09:46:29;;;;;;;1.10;1.00;;;23.20;57.20;;;;;;5078874;27;20077;-59
2022/07/21 09:48:57;;;;;;;2.33;1.58;;;23.20;57.20;;;;;;5078658;27;20031;-57
2022/07/21 09:51:27;;;;;;;1.52;1.08;;;23.20;57.30;;;;;;5079131;28;20044;-58
2022/07/21 09:54:03;;;;;;;1.70;1.10;;;23.20;57.20;;;;;;5075895;27;20051;-58
2022/07/21 09:56:34;;;;;;;1.15;1.00;;;23.20;57.40;;;;;;5052544;28;20031;-58
2022/07/21 09:59:01;;;;;;;1.20;1.10;;;23.30;57.20;;;;;;5068970;27;20027;-58
2022/07/21 10:01:27;;;;;;;1.13;1.02;;;23.30;57.20;;;;;;5071834;27;20053;-58
2022/07/21 10:03:55;;;;;;;1.23;0.90;;;23.30;57.30;;;;;;5081829;27;20090;-58
2022/07/21 10:06:33;;;;;;;1.20;1.10;;;23.30;57.60;;;;;;5062245;28;20126;-58
2022/07/21 10:09:01;;;;;;;1.02;1.00;;;23.30;57.50;;;;;;5075181;27;20027;-61
2022/07/21 10:11:28;;;;;;;1.00;1.00;;;23.40;57.30;;;;;;5070161;27;20111;-60
2022/07/21 10:13:54;;;;;;;0.93;0.80;;;23.40;57.50;;;;;;5078989;27;20032;-56
2022/07/21 10:16:20;;;;;;;0.77;0.77;;;23.40;57.40;;;;;;5070391;27;20135;-58
2022/07/21 10:19:28;;;;;;;0.60;0.60;;;23.40;57.40;;;;;;5072830;27;20027;-56
2022/07/21 10:22:31;;;;;;;1.23;1.20;;;23.40;57.50;;;;;;5065743;28;20474;-58
2022/07/21 10:24:57;;;;;;;1.13;0.82;;;23.40;57.60;;;;;;5051174;28;20032;-58
2022/07/21 10:27:23;;;;;;;0.82;0.73;;;23.40;57.70;;;;;;5076303;27;20487;-59
2022/07/21 10:30:00;;;;;;;0.65;0.65;;;23.50;57.80;;;;;;5073218;28;20023;-56
2022/07/21 10:32:37;;;;;;;0.77;0.77;;;23.50;57.30;;;;;;5068479;28;20031;-58
2022/07/21 10:35:29;;;;;;;1.27;1.10;;;23.50;57.30;;;;;;5077325;27;20063;-59
2022/07/21 10:37:55;;;;;;;0.88;0.88;;;23.50;57.70;;;;;;5075006;28;20384;-59
2022/07/21 10:40:21;;;;;;;0.70;0.70;;;23.50;57.30;;;;;;5070943;28;20051;-59
2022/07/21 10:43:06;;;;;;;0.55;0.55;;;23.60;57.10;;;;;;5063447;28;20027;-58
2022/07/21 10:45:37;;;;;;;1.10;1.00;;;23.60;57.40;;;;;;5039947;28;20521;-59
2022/07/21 10:48:27;;;;;;;1.30;1.20;;;23.60;57.80;;;;;;5073977;28;20058;-57
2022/07/21 10:50:58;;;;;;;0.77;0.77;;;23.60;57.50;;;;;;5074476;28;20058;-58
2022/07/21 10:53:23;;;;;;;1.00;1.00;;;23.60;57.00;;;;;;5066417;28;21227;-58
2022/07/21 10:55:53;;;;;;;1.10;1.10;;;23.70;57.20;;;;;;5073430;28;20035;-58
2022/07/21 10:58:41;;;;;;;0.80;0.80;;;23.80;57.80;;;;;;5081997;28;20440;-58
2022/07/21 11:01:27;;;;;;;0.93;0.93;;;23.80;58.10;;;;;;5078995;28;20057;-58
2022/07/21 11:04:11;;;;;;;1.10;1.10;;;23.90;58.20;;;;;;5078983;28;21354;-58
2022/07/21 11:06:38;;;;;;;1.33;1.20;;;24.00;57.80;;;;;;5069658;28;20031;-58
2022/07/21 11:09:04;;;;;;;1.40;1.30;;;24.00;57.20;;;;;;5070731;28;20118;-56
2022/07/21 11:11:32;;;;;;;1.25;1.25;;;24.00;56.70;;;;;;5070992;28;20777;-57
2022/07/21 11:14:09;;;;;;;1.63;1.45;;;24.00;56.60;;;;;;5079033;28;20122;-57
2022/07/21 11:19:39;;;;;;;1.65;1.55;;;24.00;57.40;;;;;;5079087;28;20040;-56
2022/07/21 11:22:22;;;;;;;1.63;1.38;;;24.00;57.80;;;;;;5074096;28;20476;-56
2022/07/21 11:24:49;;;;;;;1.15;1.02;;;24.00;57.70;;;;;;5069698;28;20039;-57
2022/07/21 11:27:20;;;;;;;1.85;1.75;;;23.90;57.60;;;;;;5074019;28;20143;-57
2022/07/21 11:29:49;;;;;;;1.70;1.60;;;24.00;57.20;;;;;;5071145;28;20515;-57
2022/07/21 11:32:19;;;;;;;2.15;1.60;;;23.90;57.00;;;;;;5073181;28;20032;-54
2022/07/21 11:34:47;;;;;;;2.50;1.63;;;24.00;57.00;;;;;;5063367;28;20480;-57
2022/07/21 11:37:16;;;;;;;1.67;1.58;;;23.90;57.20;;;;;;5073482;28;20112;-56
2022/07/21 11:39:41;;;;;;;3.05;1.83;;;24.00;57.10;;;;;;5067835;28;20257;-58
2022/07/21 11:42:15;;;;;;;1.77;1.67;;;23.90;57.20;;;;;;5067572;28;20035;-58
2022/07/21 11:44:41;;;;;;;2.58;1.73;;;24.00;57.40;;;;;;5070967;28;20038;-59
2022/07/21 11:47:11;;;;;;;1.80;1.70;;;24.00;57.10;;;;;;5081115;28;20843;-59
2022/07/21 11:49:36;;;;;;;1.73;1.63;;;24.00;57.10;;;;;;5077028;28;21200;-59
2022/07/21 11:52:08;;;;;;;1.70;1.60;;;24.00;57.30;;;;;;5073286;27;20115;-59
2022/07/21 11:54:43;;;;;;;2.13;1.70;;;24.10;57.40;;;;;;5074973;28;20165;-58
2022/07/21 11:57:11;;;;;;;1.77;1.65;;;24.10;57.70;;;;;;5080433;27;20031;-57
2022/07/21 11:59:43;;;;;;;1.98;1.77;;;24.10;57.70;;;;;;5072677;27;20028;-58
2022/07/21 12:02:17;;;;;;;2.45;2.00;;;24.00;57.70;;;;;;5077861;27;20151;-58
2022/07/21 12:04:48;;;;;;;1.88;1.77;;;24.00;57.60;;;;;;5078807;27;20031;-58
2022/07/21 12:07:20;;;;;;;1.50;1.40;;;24.10;57.80;;;;;;5075095;27;20115;-57
2022/07/21 12:09:51;;;;;;;2.05;1.88;;;24.10;57.90;;;;;;5074555;27;20762;-58
2022/07/21 12:12:34;;;;;;;2.25;1.98;;;24.20;58.20;;;;;;5076152;27;20071;-59
2022/07/21 12:15:29;;;;;;;1.70;1.60;;;24.20;57.90;;;;;;5074734;27;20023;-59
2022/07/21 12:18:00;;;;;;;1.67;1.58;;;24.20;57.70;;;;;;5074875;27;20028;-59
2022/07/21 12:20:39;;;;;;;1.98;1.70;;;24.30;57.80;;;;;;5078639;27;20030;-58
2022/07/21 12:23:26;;;;;;;2.53;2.10;;;24.40;57.80;;;;;;5070868;27;20024;-58
2022/07/21 12:25:53;;;;;;;2.08;1.77;;;24.40;58.10;;;;;;5080776;27;20044;-59
2022/07/21 12:28:19;;;;;;;2.55;1.90;;;24.50;58.10;;;;;;5074159;28;20038;-58
2022/07/21 12:30:50;;;;;;;2.10;1.67;;;24.50;58.10;;;;;;5079418;27;20023;-58
2022/07/21 12:33:26;;;;;;;1.75;1.65;;;24.60;58.10;;;;;;5072655;28;20039;-59
2022/07/21 12:36:00;;;;;;;1.67;1.58;;;24.60;58.00;;;;;;5076795;27;20049;-59
2022/07/21 12:38:37;;;;;;;1.73;1.63;;;24.60;57.80;;;;;;5080415;27;20391;-58
2022/07/21 12:41:02;;;;;;;2.13;1.70;;;24.70;58.00;;;;;;5081431;27;20044;-57
2022/07/21 12:43:28;;;;;;;1.70;1.60;;;24.60;57.80;;;;;;5080262;27;20028;-57
2022/07/21 12:46:19;;;;;;;2.75;2.20;;;24.70;57.90;;;;;;5076528;27;20035;-57
2022/07/21 12:48:45;;;;;;;;;;;24.70;57.70;;;;;;5079512;27;20118;-57
2022/07/21 12:51:18;;;;;;;1.92;1.80;;;24.60;57.60;;;;;;5075681;27;20530;-56
2022/07/21 12:53:52;;;;;;;2.05;1.85;;;24.70;57.90;;;;;;5080961;27;20031;-58
2022/07/21 12:56:31;;;;;;;2.20;2.00;;;24.70;57.70;;;;;;5079289;27;20167;-58
2022/07/21 12:58:58;;;;;;;2.15;1.95;;;24.70;58.20;;;;;;5079325;27;20054;-58
2022/07/21 13:01:26;;;;;;;2.05;1.88;;;24.70;57.60;;;;;;5079264;27;20122;-58